sensor_id;sensor_type;location;lat;lon;timestamp;noise_LAeq;noise_LA_min;noise_LA_max;noise_LA01;noise_LA95
42701;Laerm;28316;49.504;8.526;2023-10-09T00:04:01;40.52;38.95;41.96;;
42701;Laerm;28316;49.504;8.526;2023-10-09T00:06:31;40.51;38.95;41.89;;
42701;Laerm;28316;49.504;8.526;2023-10-09T00:09:10;40.55;38.95;42.03;;
42701;Laerm;28316;49.504;8.526;2023-10-09T00:11:48;40.57;38.81;42.03;;
42701;Laerm;28316;49.504;8.526;2023-10-09T00:14:16;40.52;39.08;41.96;;
42701;Laerm;28316;49.504;8.526;2023-10-09T00:16:47;40.52;38.95;41.68;;
42701;Laerm;28316;49.504;8.526;2023-10-09T00:19:39;40.51;38.95;41.68;;
42701;Laerm;28316;49.504;8.526;2023-10-09T00:22:20;40.53;38.67;41.75;;
42701;Laerm;28316;49.504;8.526;2023-10-09T00:26:17;40.64;38.95;41.96;;
42701;Laerm;28316;49.504;8.526;2023-10-09T00:28:45;40.71;39.08;42.09;;
42701;Laerm;28316;49.504;8.526;2023-10-09T00:31:19;40.74;39.08;42.22;;
42701;Laerm;28316;49.504;8.526;2023-10-09T00:34:04;40.81;39.08;42.29;;
42701;Laerm;28316;49.504;8.526;2023-10-09T00:36:34;40.86;39.46;42.03;;
42701;Laerm;28316;49.504;8.526;2023-10-09T00:39:16;40.85;39.34;42.29;;
42701;Laerm;28316;49.504;8.526;2023-10-09T00:41:48;40.84;38.67;42.16;;
42701;Laerm;28316;49.504;8.526;2023-10-09T00:44:23;40.84;39.34;42.29;;
42701;Laerm;28316;49.504;8.526;2023-10-09T00:46:55;40.86;39.34;42.22;;
42701;Laerm;28316;49.504;8.526;2023-10-09T00:49:37;40.86;39.46;42.35;;
42701;Laerm;28316;49.504;8.526;2023-10-09T00:52:08;40.83;39.08;42.16;;
42701;Laerm;28316;49.504;8.526;2023-10-09T00:54:44;40.83;39.21;42.09;;
42701;Laerm;28316;49.504;8.526;2023-10-09T00:57:25;40.84;39.46;42.03;;
42701;Laerm;28316;49.504;8.526;2023-10-09T00:59:54;40.82;39.46;42.03;;
42701;Laerm;28316;49.504;8.526;2023-10-09T01:03:18;40.84;39.34;42.22;;
42701;Laerm;28316;49.504;8.526;2023-10-09T01:05:58;40.81;39.21;42.22;;
42701;Laerm;28316;49.504;8.526;2023-10-09T01:08:40;40.79;39.34;42.09;;
42701;Laerm;28316;49.504;8.526;2023-10-09T01:13:58;40.77;39.34;42.03;;
42701;Laerm;28316;49.504;8.526;2023-10-09T01:16:39;40.81;38.95;42.16;;
42701;Laerm;28316;49.504;8.526;2023-10-09T01:19:09;40.83;39.21;42.71;;
42701;Laerm;28316;49.504;8.526;2023-10-09T01:21:51;40.86;39.34;42.03;;
42701;Laerm;28316;49.504;8.526;2023-10-09T01:27:14;40.81;38.95;42.09;;
42701;Laerm;28316;49.504;8.526;2023-10-09T01:29:41;40.75;39.21;42.22;;
42701;Laerm;28316;49.504;8.526;2023-10-09T01:32:37;40.73;38.95;42.03;;
42701;Laerm;28316;49.504;8.526;2023-10-09T01:35:16;40.74;39.08;42.03;;
42701;Laerm;28316;49.504;8.526;2023-10-09T01:38:54;40.74;38.81;42.03;;
42701;Laerm;28316;49.504;8.526;2023-10-09T01:41:20;40.75;39.34;42.09;;
42701;Laerm;28316;49.504;8.526;2023-10-09T01:43:46;40.73;39.08;42.03;;
42701;Laerm;28316;49.504;8.526;2023-10-09T01:46:18;40.76;39.34;41.96;;
42701;Laerm;28316;49.504;8.526;2023-10-09T01:48:48;40.79;39.21;42.09;;
42701;Laerm;28316;49.504;8.526;2023-10-09T01:51:23;40.78;39.21;42.16;;
42701;Laerm;28316;49.504;8.526;2023-10-09T01:54:12;40.79;39.08;42.41;;
42701;Laerm;28316;49.504;8.526;2023-10-09T01:57:07;40.81;39.21;42.09;;
42701;Laerm;28316;49.504;8.526;2023-10-09T02:00:03;40.79;39.21;42.16;;
42701;Laerm;28316;49.504;8.526;2023-10-09T02:02:29;40.75;39.21;42.09;;
42701;Laerm;28316;49.504;8.526;2023-10-09T02:05:10;40.68;38.52;42.03;;
42701;Laerm;28316;49.504;8.526;2023-10-09T02:08:18;40.65;39.21;42.03;;
42701;Laerm;28316;49.504;8.526;2023-10-09T02:10:53;40.67;38.67;42.03;;
42701;Laerm;28316;49.504;8.526;2023-10-09T02:13:22;40.66;39.21;41.96;;
42701;Laerm;28316;49.504;8.526;2023-10-09T02:16:17;40.63;38.95;41.89;;
42701;Laerm;28316;49.504;8.526;2023-10-09T02:18:56;40.64;38.87;42.00;;
42701;Laerm;28316;49.504;8.526;2023-10-09T02:21:24;40.62;38.95;41.82;;
42701;Laerm;28316;49.504;8.526;2023-10-09T02:24:53;40.61;38.81;42.16;;
42701;Laerm;28316;49.504;8.526;2023-10-09T02:27:49;40.61;38.95;42.06;;
42701;Laerm;28316;49.504;8.526;2023-10-09T02:30:31;40.61;39.08;41.75;;
42701;Laerm;28316;49.504;8.526;2023-10-09T02:33:02;40.64;39.08;42.03;;
42701;Laerm;28316;49.504;8.526;2023-10-09T02:36:06;40.63;38.95;42.09;;
42701;Laerm;28316;49.504;8.526;2023-10-09T02:38:58;40.60;39.08;41.89;;
42701;Laerm;28316;49.504;8.526;2023-10-09T02:41:30;40.61;38.95;42.03;;
42701;Laerm;28316;49.504;8.526;2023-10-09T02:43:59;40.62;39.08;42.16;;
42701;Laerm;28316;49.504;8.526;2023-10-09T02:46:42;40.63;39.08;41.82;;
42701;Laerm;28316;49.504;8.526;2023-10-09T02:49:16;40.60;39.08;41.96;;
42701;Laerm;28316;49.504;8.526;2023-10-09T02:51:48;40.58;38.95;42.03;;
42701;Laerm;28316;49.504;8.526;2023-10-09T02:54:59;40.56;38.95;41.82;;
42701;Laerm;28316;49.504;8.526;2023-10-09T02:57:47;40.53;38.87;41.89;;
42701;Laerm;28316;49.504;8.526;2023-10-09T03:00:26;40.52;38.52;41.82;;
42701;Laerm;28316;49.504;8.526;2023-10-09T03:02:55;40.53;38.95;41.75;;
42701;Laerm;28316;49.504;8.526;2023-10-09T03:05:26;40.51;38.95;42.22;;
42701;Laerm;28316;49.504;8.526;2023-10-09T03:08:45;40.44;38.81;42.03;;
42701;Laerm;28316;49.504;8.526;2023-10-09T03:11:28;40.43;38.67;41.89;;
42701;Laerm;28316;49.504;8.526;2023-10-09T03:14:06;40.44;38.81;41.75;;
42701;Laerm;28316;49.504;8.526;2023-10-09T03:17:35;40.43;38.81;41.96;;
42701;Laerm;28316;49.504;8.526;2023-10-09T03:24:15;40.33;38.81;41.82;;
42701;Laerm;28316;49.504;8.526;2023-10-09T03:26:47;40.25;38.52;41.68;;
42701;Laerm;28316;49.504;8.526;2023-10-09T03:29:39;40.19;38.37;41.61;;
42701;Laerm;28316;49.504;8.526;2023-10-09T03:32:07;40.14;38.37;41.61;;
42701;Laerm;28316;49.504;8.526;2023-10-09T03:34:49;40.10;38.21;41.46;;
42701;Laerm;28316;49.504;8.526;2023-10-09T03:37:22;40.07;38.52;41.46;;
42701;Laerm;28316;49.504;8.526;2023-10-09T03:40:02;40.04;38.21;41.68;;
42701;Laerm;28316;49.504;8.526;2023-10-09T03:42:37;40.04;38.37;41.38;;
42701;Laerm;28316;49.504;8.526;2023-10-09T03:45:20;40.04;38.37;41.53;;
42701;Laerm;28316;49.504;8.526;2023-10-09T03:48:09;40.01;38.21;41.68;;
42701;Laerm;28316;49.504;8.526;2023-10-09T03:50:49;39.98;38.05;41.46;;
42701;Laerm;28316;49.504;8.526;2023-10-09T03:53:24;40.00;38.21;41.30;;
42701;Laerm;28316;49.504;8.526;2023-10-09T03:55:59;39.98;38.37;41.38;;
42701;Laerm;28316;49.504;8.526;2023-10-09T03:58:54;40.01;37.87;41.46;;
42701;Laerm;28316;49.504;8.526;2023-10-09T04:01:44;40.08;38.21;41.53;;
42701;Laerm;28316;49.504;8.526;2023-10-09T04:04:20;40.13;38.52;41.61;;
42701;Laerm;28316;49.504;8.526;2023-10-09T04:06:51;40.16;37.88;41.75;;
42701;Laerm;28316;49.504;8.526;2023-10-09T04:09:20;40.20;38.37;41.68;;
42701;Laerm;28316;49.504;8.526;2023-10-09T04:12:23;40.19;38.37;41.61;;
42701;Laerm;28316;49.504;8.526;2023-10-09T04:15:13;40.13;38.05;41.61;;
42701;Laerm;28316;49.504;8.526;2023-10-09T04:17:41;40.13;38.37;41.53;;
42701;Laerm;28316;49.504;8.526;2023-10-09T04:20:33;40.13;38.52;41.75;;
42701;Laerm;28316;49.504;8.526;2023-10-09T04:23:08;40.15;38.05;41.53;;
42701;Laerm;28316;49.504;8.526;2023-10-09T04:25:56;40.15;38.37;41.68;;
42701;Laerm;28316;49.504;8.526;2023-10-09T04:28:28;40.14;38.02;41.53;;
42701;Laerm;28316;49.504;8.526;2023-10-09T04:31:13;40.14;38.52;41.53;;
42701;Laerm;28316;49.504;8.526;2023-10-09T04:34:07;40.11;38.05;41.68;;
42701;Laerm;28316;49.504;8.526;2023-10-09T04:37:00;40.10;38.37;41.61;;
42701;Laerm;28316;49.504;8.526;2023-10-09T04:47:10;40.08;38.37;41.46;;
42701;Laerm;28316;49.504;8.526;2023-10-09T04:49:44;40.06;38.37;41.53;;
42701;Laerm;28316;49.504;8.526;2023-10-09T04:52:55;40.04;37.88;41.68;;
42701;Laerm;28316;49.504;8.526;2023-10-09T04:55:55;40.05;38.05;41.89;;
42701;Laerm;28316;49.504;8.526;2023-10-09T04:58:59;40.04;38.21;41.68;;
42701;Laerm;28316;49.504;8.526;2023-10-09T05:02:25;40.07;38.37;41.53;;
42701;Laerm;28316;49.504;8.526;2023-10-09T05:05:34;40.17;38.37;41.75;;
42701;Laerm;28316;49.504;8.526;2023-10-09T05:08:32;40.21;38.37;41.53;;
42701;Laerm;28316;49.504;8.526;2023-10-09T05:11:03;40.22;38.52;41.82;;
42701;Laerm;28316;49.504;8.526;2023-10-09T14:32:54;40.25;37.88;51.23;;
42701;Laerm;28316;49.504;8.526;2023-10-09T14:35:22;40.20;37.88;41.96;;
42701;Laerm;28316;49.504;8.526;2023-10-09T14:37:52;40.17;37.88;42.22;;
42701;Laerm;28316;49.504;8.526;2023-10-09T14:40:19;40.19;37.70;42.41;;
42701;Laerm;28316;49.504;8.526;2023-10-09T14:42:58;40.16;37.70;42.47;;
42701;Laerm;28316;49.504;8.526;2023-10-09T14:45:27;40.11;37.52;42.03;;
42701;Laerm;28316;49.504;8.526;2023-10-09T14:48:08;40.18;37.52;44.04;;
42701;Laerm;28316;49.504;8.526;2023-10-09T14:50:37;40.11;37.70;42.09;;
42701;Laerm;28316;49.504;8.526;2023-10-09T14:53:04;40.13;37.70;42.65;;
42701;Laerm;28316;49.504;8.526;2023-10-09T14:55:30;40.21;37.32;43.99;;
42701;Laerm;28316;49.504;8.526;2023-10-09T14:57:57;40.15;37.52;43.39;;
42701;Laerm;28316;49.504;8.526;2023-10-09T15:00:24;40.13;37.12;43.77;;
42701;Laerm;28316;49.504;8.526;2023-10-09T15:02:52;40.15;37.32;42.65;;
42701;Laerm;28316;49.504;8.526;2023-10-09T15:05:17;40.13;37.32;42.98;;
42701;Laerm;28316;49.504;8.526;2023-10-09T15:07:43;40.14;37.12;43.34;;
42701;Laerm;28316;49.504;8.526;2023-10-09T15:10:11;40.13;37.52;42.35;;
42701;Laerm;28316;49.504;8.526;2023-10-09T15:12:41;40.12;37.53;42.22;;
42701;Laerm;28316;49.504;8.526;2023-10-09T15:15:09;40.11;37.52;42.03;;
42701;Laerm;28316;49.504;8.526;2023-10-09T15:17:42;40.07;37.52;42.16;;
42701;Laerm;28316;49.504;8.526;2023-10-09T15:20:14;40.06;37.52;41.89;;
42701;Laerm;28316;49.504;8.526;2023-10-09T15:22:44;40.09;37.52;42.93;;
42701;Laerm;28316;49.504;8.526;2023-10-09T15:25:11;40.06;37.52;41.96;;
42701;Laerm;28316;49.504;8.526;2023-10-09T15:27:45;40.05;37.32;41.89;;
42701;Laerm;28316;49.504;8.526;2023-10-09T15:30:11;40.05;37.70;41.96;;
42701;Laerm;28316;49.504;8.526;2023-10-09T15:32:43;40.07;37.12;46.36;;
42701;Laerm;28316;49.504;8.526;2023-10-09T15:35:12;40.06;37.52;41.89;;
42701;Laerm;28316;49.504;8.526;2023-10-09T15:37:42;40.09;37.52;41.82;;
42701;Laerm;28316;49.504;8.526;2023-10-09T15:40:08;40.08;36.69;42.09;;
42701;Laerm;28316;49.504;8.526;2023-10-09T15:42:46;40.05;37.52;43.34;;
42701;Laerm;28316;49.504;8.526;2023-10-09T15:45:16;40.03;36.91;42.03;;
42701;Laerm;28316;49.504;8.526;2023-10-09T15:47:42;40.06;37.70;42.29;;
42701;Laerm;28316;49.504;8.526;2023-10-09T15:50:10;40.07;37.32;42.59;;
42701;Laerm;28316;49.504;8.526;2023-10-09T15:52:38;40.07;37.52;41.89;;
42701;Laerm;28316;49.504;8.526;2023-10-09T15:55:07;40.09;37.52;42.03;;
42701;Laerm;28316;49.504;8.526;2023-10-09T15:57:46;40.12;37.88;42.03;;
42701;Laerm;28316;49.504;8.526;2023-10-09T16:00:17;40.10;37.52;41.96;;
42701;Laerm;28316;49.504;8.526;2023-10-09T16:02:46;40.11;37.52;41.96;;
42701;Laerm;28316;49.504;8.526;2023-10-09T16:05:12;40.12;37.88;42.29;;
42701;Laerm;28316;49.504;8.526;2023-10-09T16:07:40;40.13;37.87;42.03;;
42701;Laerm;28316;49.504;8.526;2023-10-09T16:10:07;40.14;37.52;42.03;;
42701;Laerm;28316;49.504;8.526;2023-10-09T16:12:39;40.13;37.88;42.65;;
42701;Laerm;28316;49.504;8.526;2023-10-09T16:15:05;40.13;37.70;42.16;;
42701;Laerm;28316;49.504;8.526;2023-10-09T16:17:35;40.12;37.88;41.89;;
42701;Laerm;28316;49.504;8.526;2023-10-09T16:20:03;40.15;37.88;41.89;;
42701;Laerm;28316;49.504;8.526;2023-10-09T16:22:31;40.16;37.32;42.22;;
42701;Laerm;28316;49.504;8.526;2023-10-09T16:25:01;40.18;37.52;42.76;;
42701;Laerm;28316;49.504;8.526;2023-10-09T16:27:27;40.15;37.70;42.09;;
42701;Laerm;28316;49.504;8.526;2023-10-09T16:29:53;40.16;37.52;41.82;;
42701;Laerm;28316;49.504;8.526;2023-10-09T16:32:20;40.15;37.32;41.96;;
42701;Laerm;28316;49.504;8.526;2023-10-09T16:34:52;40.12;37.70;42.09;;
42701;Laerm;28316;49.504;8.526;2023-10-09T16:37:18;40.13;37.52;41.94;;
42701;Laerm;28316;49.504;8.526;2023-10-09T16:39:48;40.13;37.52;41.89;;
42701;Laerm;28316;49.504;8.526;2023-10-09T16:42:19;40.14;37.52;42.35;;
42701;Laerm;28316;49.504;8.526;2023-10-09T16:44:50;40.14;37.70;42.00;;
42701;Laerm;28316;49.504;8.526;2023-10-09T16:47:15;40.13;37.88;41.89;;
42701;Laerm;28316;49.504;8.526;2023-10-09T16:49:42;40.15;37.52;42.22;;
42701;Laerm;28316;49.504;8.526;2023-10-09T16:52:08;40.13;37.70;41.82;;
42701;Laerm;28316;49.504;8.526;2023-10-09T16:54:39;40.13;37.88;41.96;;
42701;Laerm;28316;49.504;8.526;2023-10-09T16:57:09;40.16;37.70;42.09;;
42701;Laerm;28316;49.504;8.526;2023-10-09T16:59:36;40.17;37.70;41.89;;
42701;Laerm;28316;49.504;8.526;2023-10-09T17:02:02;40.18;37.70;41.89;;
42701;Laerm;28316;49.504;8.526;2023-10-09T17:04:32;40.20;37.52;41.96;;
42701;Laerm;28316;49.504;8.526;2023-10-09T17:07:00;40.23;37.52;41.89;;
42701;Laerm;28316;49.504;8.526;2023-10-09T17:09:27;40.24;38.02;42.16;;
42701;Laerm;28316;49.504;8.526;2023-10-09T17:11:53;40.27;37.88;41.96;;
42701;Laerm;28316;49.504;8.526;2023-10-09T17:14:22;40.31;37.70;42.22;;
42701;Laerm;28316;49.504;8.526;2023-10-09T17:16:54;40.35;38.05;42.16;;
42701;Laerm;28316;49.504;8.526;2023-10-09T17:19:23;40.36;37.70;42.41;;
42701;Laerm;28316;49.504;8.526;2023-10-09T17:21:52;40.41;38.05;42.22;;
42701;Laerm;28316;49.504;8.526;2023-10-09T17:24:18;40.42;37.32;43.24;;
42701;Laerm;28316;49.504;8.526;2023-10-09T17:26:49;40.49;38.52;42.35;;
42701;Laerm;28316;49.504;8.526;2023-10-09T17:29:18;40.48;38.05;42.29;;
42701;Laerm;28316;49.504;8.526;2023-10-09T17:31:43;40.46;38.05;42.09;;
42701;Laerm;28316;49.504;8.526;2023-10-09T17:34:09;40.48;38.37;42.09;;
42701;Laerm;28316;49.504;8.526;2023-10-09T17:36:35;40.54;38.32;42.22;;
42701;Laerm;28316;49.504;8.526;2023-10-09T17:39:01;40.49;38.05;42.09;;
42701;Laerm;28316;49.504;8.526;2023-10-09T17:41:31;40.45;38.21;42.13;;
42701;Laerm;28316;49.504;8.526;2023-10-09T17:44:03;40.43;38.18;42.16;;
42701;Laerm;28316;49.504;8.526;2023-10-09T17:46:29;40.43;37.88;42.09;;
42701;Laerm;28316;49.504;8.526;2023-10-09T17:48:55;40.40;38.21;42.09;;
42701;Laerm;28316;49.504;8.526;2023-10-09T17:51:23;40.41;37.70;42.47;;
42701;Laerm;28316;49.504;8.526;2023-10-09T17:53:50;40.39;37.70;43.19;;
42701;Laerm;28316;49.504;8.526;2023-10-09T17:56:16;40.38;38.21;42.03;;
42701;Laerm;28316;49.504;8.526;2023-10-09T17:58:44;40.36;37.70;42.16;;
42701;Laerm;28316;49.504;8.526;2023-10-09T18:01:16;40.38;37.52;42.09;;
42701;Laerm;28316;49.504;8.526;2023-10-09T18:03:42;40.36;38.05;42.03;;
42701;Laerm;28316;49.504;8.526;2023-10-09T18:06:08;40.37;38.05;42.16;;
42701;Laerm;28316;49.504;8.526;2023-10-09T18:08:39;40.36;37.88;42.03;;
42701;Laerm;28316;49.504;8.526;2023-10-09T18:11:05;40.35;38.05;42.09;;
42701;Laerm;28316;49.504;8.526;2023-10-09T18:13:31;40.33;37.70;42.16;;
42701;Laerm;28316;49.504;8.526;2023-10-09T18:16:09;40.33;37.88;41.96;;
42701;Laerm;28316;49.504;8.526;2023-10-09T18:18:39;40.30;37.70;41.96;;
42701;Laerm;28316;49.504;8.526;2023-10-09T18:21:09;40.32;37.88;41.96;;
42701;Laerm;28316;49.504;8.526;2023-10-09T18:23:36;40.33;37.52;42.41;;
42701;Laerm;28316;49.504;8.526;2023-10-09T18:26:05;40.33;38.21;42.03;;
42701;Laerm;28316;49.504;8.526;2023-10-09T18:28:32;40.38;38.21;42.22;;
42701;Laerm;28316;49.504;8.526;2023-10-09T18:31:02;40.36;38.21;42.16;;
42701;Laerm;28316;49.504;8.526;2023-10-09T18:33:31;40.38;38.18;42.41;;
42701;Laerm;28316;49.504;8.526;2023-10-09T18:35:58;40.44;38.05;42.22;;
42701;Laerm;28316;49.504;8.526;2023-10-09T18:38:29;40.48;38.05;42.22;;
42701;Laerm;28316;49.504;8.526;2023-10-09T18:40:54;40.48;38.05;42.09;;
42701;Laerm;28316;49.504;8.526;2023-10-09T18:43:21;40.51;38.21;42.29;;
42701;Laerm;28316;49.504;8.526;2023-10-09T18:45:48;40.54;38.32;42.59;;
42701;Laerm;28316;49.504;8.526;2023-10-09T18:48:14;40.59;38.52;50.41;;
42701;Laerm;28316;49.504;8.526;2023-10-09T18:50:43;40.54;38.05;42.16;;
42701;Laerm;28316;49.504;8.526;2023-10-09T18:53:10;40.63;38.67;42.16;;
42701;Laerm;28316;49.504;8.526;2023-10-09T18:55:37;40.54;38.05;42.16;;
42701;Laerm;28316;49.504;8.526;2023-10-09T18:58:03;40.47;38.05;42.29;;
42701;Laerm;28316;49.504;8.526;2023-10-09T19:00:30;40.47;38.37;42.22;;
42701;Laerm;28316;49.504;8.526;2023-10-09T19:02:57;40.56;38.05;42.22;;
42701;Laerm;28316;49.504;8.526;2023-10-09T19:05:26;40.73;38.52;42.47;;
42701;Laerm;28316;49.504;8.526;2023-10-09T19:07:52;40.99;38.95;42.65;;
42701;Laerm;28316;49.504;8.526;2023-10-09T19:10:19;41.12;39.34;42.71;;
42701;Laerm;28316;49.504;8.526;2023-10-09T19:12:48;41.10;39.08;42.53;;
42701;Laerm;28316;49.504;8.526;2023-10-09T19:15:14;41.09;39.08;42.71;;
42701;Laerm;28316;49.504;8.526;2023-10-09T19:17:40;41.13;39.46;42.65;;
42701;Laerm;28316;49.504;8.526;2023-10-09T19:20:09;41.14;39.34;42.71;;
42701;Laerm;28316;49.504;8.526;2023-10-09T19:22:42;41.19;39.08;42.65;;
42701;Laerm;28316;49.504;8.526;2023-10-09T19:25:09;41.30;39.70;42.59;;
42701;Laerm;28316;49.504;8.526;2023-10-09T19:27:51;41.46;39.70;42.71;;
42701;Laerm;28316;49.504;8.526;2023-10-09T19:30:18;41.46;40.03;42.65;;
42701;Laerm;28316;49.504;8.526;2023-10-09T19:32:46;41.43;40.13;42.53;;
42701;Laerm;28316;49.504;8.526;2023-10-09T19:35:12;41.43;39.92;42.65;;
42701;Laerm;28316;49.504;8.526;2023-10-09T19:37:38;41.45;39.81;42.71;;
42701;Laerm;28316;49.504;8.526;2023-10-09T19:40:04;41.46;39.81;42.82;;
42701;Laerm;28316;49.504;8.526;2023-10-09T19:42:35;41.46;39.81;42.82;;
42701;Laerm;28316;49.504;8.526;2023-10-09T19:45:04;41.47;39.81;42.76;;
42701;Laerm;28316;49.504;8.526;2023-10-09T19:47:31;41.49;39.81;42.71;;
42701;Laerm;28316;49.504;8.526;2023-10-09T19:49:57;41.51;39.92;42.76;;
42701;Laerm;28316;49.504;8.526;2023-10-09T19:52:24;41.49;40.13;42.74;;
42701;Laerm;28316;49.504;8.526;2023-10-09T19:54:50;41.49;40.03;42.82;;
42701;Laerm;28316;49.504;8.526;2023-10-09T19:57:20;41.51;40.13;42.76;;
42701;Laerm;28316;49.504;8.526;2023-10-09T19:59:45;41.53;39.92;42.88;;
42701;Laerm;28316;49.504;8.526;2023-10-09T20:02:13;41.52;40.03;42.71;;
42701;Laerm;28316;49.504;8.526;2023-10-09T20:04:39;41.53;39.58;42.82;;
42701;Laerm;28316;49.504;8.526;2023-10-09T20:07:05;41.53;40.03;42.59;;
42701;Laerm;28316;49.504;8.526;2023-10-09T20:09:32;41.57;40.03;42.98;;
42701;Laerm;28316;49.504;8.526;2023-10-09T20:11:59;41.52;39.92;42.71;;
42701;Laerm;28316;49.504;8.526;2023-10-09T20:14:27;41.52;40.13;42.76;;
42701;Laerm;28316;49.504;8.526;2023-10-09T20:16:54;41.51;40.13;43.04;;
42701;Laerm;28316;49.504;8.526;2023-10-09T20:19:19;41.51;40.23;42.76;;
42701;Laerm;28316;49.504;8.526;2023-10-09T20:21:45;41.50;40.03;42.71;;
42701;Laerm;28316;49.504;8.526;2023-10-09T20:24:11;41.49;39.92;42.85;;
42701;Laerm;28316;49.504;8.526;2023-10-09T20:26:40;41.45;40.03;42.65;;
42701;Laerm;28316;49.504;8.526;2023-10-09T20:29:16;41.54;40.03;42.71;;
42701;Laerm;28316;49.504;8.526;2023-10-09T20:31:43;41.40;39.81;42.59;;
42701;Laerm;28316;49.504;8.526;2023-10-09T20:34:13;41.43;39.81;42.65;;
42701;Laerm;28316;49.504;8.526;2023-10-09T20:36:40;41.24;39.58;42.29;;
42701;Laerm;28316;49.504;8.526;2023-10-09T20:39:10;41.14;39.58;42.59;;
42701;Laerm;28316;49.504;8.526;2023-10-09T20:41:39;41.03;39.46;42.35;;
42701;Laerm;28316;49.504;8.526;2023-10-09T20:44:06;40.94;39.58;42.09;;
42701;Laerm;28316;49.504;8.526;2023-10-09T20:46:36;40.89;39.46;42.03;;
42701;Laerm;28316;49.504;8.526;2023-10-09T20:49:03;40.79;39.21;42.09;;
42701;Laerm;28316;49.504;8.526;2023-10-09T20:51:29;40.85;39.08;42.29;;
42701;Laerm;28316;49.504;8.526;2023-10-09T20:53:55;40.70;38.95;42.03;;
42701;Laerm;28316;49.504;8.526;2023-10-09T20:56:22;40.59;39.08;41.82;;
42701;Laerm;28316;49.504;8.526;2023-10-09T20:58:53;40.51;38.81;41.96;;
42701;Laerm;28316;49.504;8.526;2023-10-09T21:01:19;40.48;38.81;41.82;;
42701;Laerm;28316;49.504;8.526;2023-10-09T21:03:47;40.44;38.95;41.89;;
42701;Laerm;28316;49.504;8.526;2023-10-09T21:06:15;40.36;38.47;41.68;;
42701;Laerm;28316;49.504;8.526;2023-10-09T21:08:43;40.28;38.67;41.75;;
42701;Laerm;28316;49.504;8.526;2023-10-09T21:11:09;40.22;38.37;41.61;;
42701;Laerm;28316;49.504;8.526;2023-10-09T21:13:38;40.18;38.37;41.46;;
42701;Laerm;28316;49.504;8.526;2023-10-09T21:16:06;40.26;37.88;41.82;;
42701;Laerm;28316;49.504;8.526;2023-10-09T21:18:34;40.33;38.67;41.68;;
42701;Laerm;28316;49.504;8.526;2023-10-09T21:21:00;40.46;39.08;41.96;;
42701;Laerm;28316;49.504;8.526;2023-10-09T21:23:28;40.50;38.81;41.96;;
42701;Laerm;28316;49.504;8.526;2023-10-09T21:25:54;40.47;39.08;42.03;;
42701;Laerm;28316;49.504;8.526;2023-10-09T21:28:20;40.40;38.67;41.96;;
42701;Laerm;28316;49.504;8.526;2023-10-09T21:30:46;40.27;38.67;41.61;;
42701;Laerm;28316;49.504;8.526;2023-10-09T21:33:12;40.19;38.21;41.89;;
42701;Laerm;28316;49.504;8.526;2023-10-09T21:35:37;40.16;38.32;41.46;;
42701;Laerm;28316;49.504;8.526;2023-10-09T21:38:05;40.11;38.21;41.61;;
42701;Laerm;28316;49.504;8.526;2023-10-09T21:40:35;40.03;38.37;41.30;;
42701;Laerm;28316;49.504;8.526;2023-10-09T21:43:04;39.93;38.05;45.36;;
42701;Laerm;28316;49.504;8.526;2023-10-09T21:45:40;39.87;38.05;41.68;;
42701;Laerm;28316;49.504;8.526;2023-10-09T21:48:11;39.92;38.05;41.53;;
42701;Laerm;28316;49.504;8.526;2023-10-09T21:50:37;40.19;38.21;41.53;;
42701;Laerm;28316;49.504;8.526;2023-10-09T21:53:05;40.11;38.21;41.61;;
42701;Laerm;28316;49.504;8.526;2023-10-09T21:55:31;40.26;38.37;41.61;;
42701;Laerm;28316;49.504;8.526;2023-10-09T21:58:01;40.40;38.81;41.82;;
42701;Laerm;28316;49.504;8.526;2023-10-09T22:00:27;40.37;38.60;42.00;;
42701;Laerm;28316;49.504;8.526;2023-10-09T22:03:04;40.17;38.21;41.53;;
42701;Laerm;28316;49.504;8.526;2023-10-09T22:05:39;40.55;38.67;42.03;;
42701;Laerm;28316;49.504;8.526;2023-10-09T22:08:13;40.48;38.81;42.22;;
42701;Laerm;28316;49.504;8.526;2023-10-09T22:10:40;40.37;38.67;41.89;;
42701;Laerm;28316;49.504;8.526;2023-10-09T22:13:07;40.08;38.47;41.46;;
42701;Laerm;28316;49.504;8.526;2023-10-09T22:15:43;40.03;38.37;41.38;;
42701;Laerm;28316;49.504;8.526;2023-10-09T22:18:12;40.05;38.21;41.46;;
42701;Laerm;28316;49.504;8.526;2023-10-09T22:20:46;40.03;38.21;41.53;;
42701;Laerm;28316;49.504;8.526;2023-10-09T22:23:13;40.11;38.37;41.61;;
42701;Laerm;28316;49.504;8.526;2023-10-09T22:25:45;40.03;38.37;41.46;;
42701;Laerm;28316;49.504;8.526;2023-10-09T22:28:23;40.09;38.52;41.68;;
42701;Laerm;28316;49.504;8.526;2023-10-09T22:30:49;40.07;38.37;41.46;;
42701;Laerm;28316;49.504;8.526;2023-10-09T22:33:19;39.94;37.88;41.61;;
42701;Laerm;28316;49.504;8.526;2023-10-09T22:35:51;39.98;38.21;41.75;;
42701;Laerm;28316;49.504;8.526;2023-10-09T22:38:19;40.31;38.52;41.89;;
42701;Laerm;28316;49.504;8.526;2023-10-09T22:40:46;40.23;38.67;41.61;;
42701;Laerm;28316;49.504;8.526;2023-10-09T22:43:17;40.00;38.21;41.30;;
42701;Laerm;28316;49.504;8.526;2023-10-09T22:45:46;39.90;38.21;41.53;;
42701;Laerm;28316;49.504;8.526;2023-10-09T22:48:15;39.82;37.88;41.30;;
42701;Laerm;28316;49.504;8.526;2023-10-09T22:50:45;39.73;37.52;41.30;;
42701;Laerm;28316;49.504;8.526;2023-10-09T22:53:13;39.72;37.88;41.46;;
42701;Laerm;28316;49.504;8.526;2023-10-09T22:55:59;39.66;38.05;41.14;;
42701;Laerm;28316;49.504;8.526;2023-10-09T22:58:28;39.63;37.70;41.38;;
42701;Laerm;28316;49.504;8.526;2023-10-09T23:01:03;39.93;38.21;41.33;;
42701;Laerm;28316;49.504;8.526;2023-10-09T23:03:39;39.92;37.88;41.61;;
42701;Laerm;28316;49.504;8.526;2023-10-09T23:06:06;40.05;38.37;41.53;;
42701;Laerm;28316;49.504;8.526;2023-10-09T23:08:42;40.08;38.21;41.53;;
42701;Laerm;28316;49.504;8.526;2023-10-09T23:11:08;39.94;37.88;41.41;;
42701;Laerm;28316;49.504;8.526;2023-10-09T23:13:35;39.96;38.21;41.38;;
42701;Laerm;28316;49.504;8.526;2023-10-09T23:16:03;39.83;38.02;41.61;;
42701;Laerm;28316;49.504;8.526;2023-10-09T23:18:34;39.68;37.70;41.26;;
42701;Laerm;28316;49.504;8.526;2023-10-09T23:21:10;39.62;37.70;41.22;;
42701;Laerm;28316;49.504;8.526;2023-10-09T23:23:58;39.62;37.32;41.61;;
42701;Laerm;28316;49.504;8.526;2023-10-09T23:26:47;39.53;37.52;41.14;;
42701;Laerm;28316;49.504;8.526;2023-10-09T23:29:21;39.41;37.32;41.06;;
42701;Laerm;28316;49.504;8.526;2023-10-09T23:31:58;39.43;37.32;41.06;;
42701;Laerm;28316;49.504;8.526;2023-10-09T23:34:25;39.45;37.53;41.11;;
42701;Laerm;28316;49.504;8.526;2023-10-09T23:36:59;39.44;37.70;40.98;;
42701;Laerm;28316;49.504;8.526;2023-10-09T23:39:29;39.42;37.52;41.22;;
42701;Laerm;28316;49.504;8.526;2023-10-09T23:42:13;39.35;37.32;40.98;;
42701;Laerm;28316;49.504;8.526;2023-10-09T23:44:50;39.21;36.20;41.06;;
42701;Laerm;28316;49.504;8.526;2023-10-09T23:47:16;39.15;36.69;40.89;;
42701;Laerm;28316;49.504;8.526;2023-10-09T23:49:43;39.08;36.69;40.89;;
42701;Laerm;28316;49.504;8.526;2023-10-09T23:52:13;39.12;36.69;40.80;;
42701;Laerm;28316;49.504;8.526;2023-10-09T23:54:42;39.15;37.12;40.89;;
42701;Laerm;28316;49.504;8.526;2023-10-09T23:57:13;39.22;36.91;40.98;;
42701;Laerm;28316;49.504;8.526;2023-10-09T23:59:48;39.10;36.91;40.80;;
